Time;durP1;ratioP1;P1;durP2;ratioP2;P2;SDS_P1;SDS_P2;PMS_P1;PMS_P2;Temp;Humidity;BMP_temperature;BMP_pressure;BME280_temperature;BME280_humidity;BME280_pressure;Samples;Min_cycle;Max_cycle;Signal;HPM_P1;HPM_P2
2022/01/23 00:00:34;;;;;;;;;2.00;2.00;;;;;16.20;55.76;103597.03;4992649;28;9660;-71
2022/01/23 00:03:02;;;;;;;;;2.00;2.00;;;;;16.22;55.60;103595.38;4992037;28;9429;-71
2022/01/23 00:05:34;;;;;;;;;3.00;3.00;;;;;16.22;55.67;103600.66;4981697;28;10207;-69
2022/01/23 00:08:02;;;;;;;;;4.50;2.50;;;;;16.17;55.56;103597.81;4973605;28;9588;-70
2022/01/23 00:10:28;;;;;;;;;2.00;2.00;;;;;16.25;55.62;103596.41;4972096;28;9470;-71
2022/01/23 00:13:06;;;;;;;;;2.25;2.25;;;;;16.26;55.71;103598.22;4973290;28;9438;-70
2022/01/23 00:18:16;;;;;;;;;3.25;3.25;;;;;16.23;55.63;103590.16;4972212;28;9392;-69
2022/01/23 00:20:41;;;;;;;;;5.00;4.00;;;;;16.27;55.57;103597.34;4972970;28;9424;-71
2022/01/23 00:23:15;;;;;;;;;3.25;3.25;;;;;16.28;55.39;103598.25;4972884;28;8795;-70
2022/01/23 00:31:08;;;;;;;;;2.75;2.00;;;;;16.25;55.62;103596.41;4971850;28;9654;-70
2022/01/23 00:33:33;;;;;;;;;2.75;2.75;;;;;16.24;55.59;103596.31;4972502;28;9699;-70
2022/01/23 00:35:58;;;;;;;;;2.00;2.00;;;;;16.28;55.46;103596.53;4972972;28;9551;-70
2022/01/23 00:38:24;;;;;;;;;3.00;3.00;;;;;16.27;55.60;103592.09;4972433;28;8794;-70
2022/01/23 00:40:50;;;;;;;;;2.50;2.50;;;;;16.26;55.48;103585.03;4972072;28;8896;-70
2022/01/23 00:43:30;;;;;;;;;2.00;2.00;;;;;16.26;55.37;103584.13;4972468;28;8817;-69
2022/01/23 00:51:33;;;;;;;;;5.00;3.00;;;;;16.28;55.58;103585.06;4972296;28;9423;-70
2022/01/23 00:54:00;;;;;;;;;2.00;2.00;;;;;16.28;55.29;103587.72;4971922;28;9541;-71
2022/01/23 00:56:26;;;;;;;;;4.00;4.00;;;;;16.27;55.26;103576.25;4972446;28;9482;-70
2022/01/23 00:58:52;;;;;;;;;1.25;1.25;;;;;16.26;55.43;103579.75;4972719;28;9478;-70
2022/01/23 01:01:18;;;;;;;;;3.00;2.25;;;;;16.22;55.60;103577.81;4971562;28;8775;-70
2022/01/23 01:03:44;;;;;;;;;3.50;3.50;;;;;16.26;55.28;103584.13;4972546;28;8778;-70
2022/01/23 01:06:09;;;;;;;;;4.00;4.00;;;;;16.27;55.22;103580.66;4972266;28;9573;-70
2022/01/23 01:08:38;;;;;;;;;4.00;2.75;;;;;16.26;55.38;103574.50;4971860;28;8794;-70
2022/01/23 01:32:47;;;;;;;;;2.00;2.00;;;;;16.24;55.60;103593.69;4971953;28;9239;-71
2022/01/23 01:37:47;;;;;;;;;2.00;2.00;;;;;16.27;55.53;103591.22;4972339;28;9430;-71
2022/01/23 01:40:13;;;;;;;;;2.00;2.00;;;;;16.27;55.34;103599.13;4971779;28;9478;-70
2022/01/23 01:42:38;;;;;;;;;2.00;2.00;;;;;16.23;55.35;103597.19;4971517;28;8840;-69
2022/01/23 01:45:04;;;;;;;;;1.25;1.25;;;;;16.26;55.40;103592.03;4971828;28;8774;-70
2022/01/23 01:47:30;;;;;;;;;2.00;2.00;;;;;16.21;55.60;103591.84;4972229;28;8806;-70
2022/01/23 01:49:55;;;;;;;;;2.25;2.00;;;;;16.23;55.71;103597.19;4971538;28;8802;-71
2022/01/23 01:52:20;;;;;;;;;3.00;2.00;;;;;16.22;55.63;103601.56;4971725;28;8782;-71
2022/01/23 01:54:47;;;;;;;;;2.00;2.00;;;;;16.26;55.66;103606.13;4972288;28;8822;-70
2022/01/23 01:57:14;;;;;;;;;3.00;3.00;;;;;16.28;55.54;103603.53;4970931;28;8806;-71
2022/01/23 02:10:33;;;;;;;;;3.00;3.00;;;;;16.26;55.41;103599.94;4970780;28;9506;-70
2022/01/23 02:13:07;;;;;;;;;2.00;2.00;;;;;16.20;55.39;103587.38;4971868;28;9673;-71
2022/01/23 02:51:06;;;;;;;;;2.00;2.00;;;;;16.23;55.67;103568.19;4974784;28;9403;-71
2022/01/23 02:53:51;;;;;;;;;2.00;2.00;;;;;16.24;55.42;103569.97;4973972;28;9314;-71
2022/01/23 02:56:23;;;;;;;;;2.00;2.00;;;;;16.25;55.72;103574.41;4974623;28;9364;-71
2022/01/23 02:58:58;;;;;;;;;3.00;3.00;;;;;16.21;55.77;103549.66;4974928;28;9302;-71
2022/01/23 03:01:28;;;;;;;;;1.75;1.75;;;;;16.24;55.82;103559.41;4974058;28;9486;-71
2022/01/23 03:04:00;;;;;;;;;2.00;2.00;;;;;16.25;55.58;103561.22;4974626;28;9403;-70
2022/01/23 03:14:19;;;;;;;;;3.00;3.00;;;;;16.24;55.43;103568.22;4973513;28;9428;-71
2022/01/23 03:24:10;;;;;;;;;2.75;2.75;;;;;16.24;55.55;103573.50;4974000;28;9309;-70
2022/01/23 03:30:16;;;;;;;;;2.25;2.25;;;;;16.20;55.58;103568.03;4973602;28;9524;-71
2022/01/23 03:32:46;;;;;;;;;3.25;3.25;;;;;16.24;55.74;103569.97;4974287;28;9396;-71
2022/01/23 03:35:12;;;;;;;;;4.50;2.25;;;;;16.25;55.41;103571.78;4973232;28;9358;-70
2022/01/23 03:37:38;;;;;;;;;2.00;2.00;;;;;16.22;55.73;103567.28;4973841;28;9351;-70
2022/01/23 03:40:04;;;;;;;;;3.00;2.00;;;;;16.22;55.72;103569.00;4973644;28;9340;-70
2022/01/23 03:42:32;;;;;;;;;2.00;2.00;;;;;16.22;55.77;103579.56;4972890;28;8782;-69
2022/01/23 03:50:29;;;;;;;;;2.00;2.00;;;;;16.22;55.51;103580.47;4973057;28;9333;-70
2022/01/23 03:52:54;;;;;;;;;2.00;2.00;;;;;16.25;55.49;103584.94;4974006;28;9511;-71
2022/01/23 03:55:23;;;;;;;;;1.33;1.33;;;;;16.22;55.73;103576.94;4973545;28;8802;-70
2022/01/23 03:57:48;;;;;;;;;2.33;2.33;;;;;16.25;55.57;103584.94;4973486;28;8774;-71
2022/01/23 04:00:16;;;;;;;;;2.50;2.25;;;;;16.24;55.87;103585.78;4973692;28;9333;-71
2022/01/23 04:02:44;;;;;;;;;2.00;2.00;;;;;16.23;55.86;103587.50;4973418;28;8770;-71
2022/01/23 04:05:10;;;;;;;;;4.50;3.50;;;;;16.22;55.60;103585.75;4973365;28;9262;-71
2022/01/23 04:07:36;;;;;;;;;2.50;2.50;;;;;16.24;55.74;103588.41;4973823;28;9492;-71
2022/01/23 04:10:03;;;;;;;;;3.00;3.00;;;;;16.21;55.75;103585.66;4972813;28;8787;-70
2022/01/23 04:12:52;;;;;;;;;4.50;3.00;;;;;16.19;55.72;103564.53;4973100;28;9535;-71
2022/01/23 04:20:36;;;;;;;;;2.00;2.00;;;;;16.21;55.65;103583.03;4973774;28;9407;-70
2022/01/23 04:34:11;;;;;;;;;1.00;1.00;;;;;16.22;55.62;103600.66;4972950;28;9399;-70
2022/01/23 05:06:30;;;;;;;;;1.50;1.50;;;;;16.23;55.92;103594.56;4971606;28;9407;-71
2022/01/23 05:08:55;;;;;;;;;2.00;2.00;;;;;16.22;55.68;103593.66;4972708;28;8845;-70
2022/01/23 05:11:20;;;;;;;;;1.00;1.00;;;;;16.19;55.97;103592.63;4972029;28;9418;-70
2022/01/23 05:13:46;;;;;;;;;2.00;2.00;;;;;16.19;55.54;103592.63;4971789;28;8801;-70
2022/01/23 05:16:12;;;;;;;;;2.00;2.00;;;;;16.18;55.92;103594.34;4971977;28;8814;-70
2022/01/23 05:18:39;;;;;;;;;2.00;2.00;;;;;16.20;55.69;103594.38;4972652;28;8762;-70
2022/01/23 05:21:34;;;;;;;;;2.00;2.00;;;;;16.20;55.83;103595.31;4971498;28;9443;-70
2022/01/23 05:23:56;;;;;;;;;2.00;2.00;;;;;16.20;55.90;103599.66;4972014;28;9479;-70
2022/01/23 05:26:22;;;;;;;;;1.00;1.00;;;;;16.16;55.71;103598.63;4971870;28;9197;-71
2022/01/23 05:28:47;;;;;;;;;2.50;2.50;;;;;16.16;55.74;103600.41;4971575;28;10081;-69
2022/01/23 05:31:12;;;;;;;;;3.00;1.75;;;;;16.15;55.87;103590.69;4971773;28;8787;-70
2022/01/23 05:33:38;;;;;;;;;2.00;2.00;;;;;16.18;55.78;103590.81;4972621;28;8790;-71
2022/01/23 05:36:05;;;;;;;;;2.00;2.00;;;;;16.21;55.67;103583.03;4971630;28;8821;-70
2022/01/23 05:38:36;;;;;;;;;1.00;1.00;;;;;16.22;55.55;103587.47;4972537;28;8766;-70
2022/01/23 05:41:02;;;;;;;;;1.67;1.67;;;;;16.15;55.67;103588.03;4971362;28;9258;-71
2022/01/23 05:43:27;;;;;;;;;1.00;1.00;;;;;16.19;55.92;103589.97;4972191;28;9246;-70
2022/01/23 05:45:53;;;;;;;;;3.00;3.00;;;;;16.19;55.72;103589.97;4972256;28;8759;-71
2022/01/23 05:48:19;;;;;;;;;1.67;1.67;;;;;16.23;55.80;103594.56;4971282;28;8789;-70
2022/01/23 05:50:46;;;;;;;;;1.00;1.00;;;;;16.21;55.85;103596.19;4972335;28;8802;-70
2022/01/23 05:53:11;;;;;;;;;1.75;1.75;;;;;16.21;55.88;103596.19;4972218;28;9305;-71
2022/01/23 05:55:37;;;;;;;;;2.00;2.00;;;;;16.22;55.75;103600.66;4971542;28;9357;-70
2022/01/23 05:58:02;;;;;;;;;3.00;3.00;;;;;16.20;55.74;103597.03;4972311;28;8785;-70
2022/01/23 06:00:28;;;;;;;;;2.00;2.00;;;;;16.20;55.85;103595.31;4972093;28;8805;-70
2022/01/23 06:02:53;;;;;;;;;1.67;1.00;;;;;16.18;55.80;103583.81;4971379;28;8801;-71
2022/01/23 06:05:18;;;;;;;;;2.33;2.33;;;;;16.21;55.77;103591.84;4971947;28;8817;-70
2022/01/23 06:07:45;;;;;;;;;3.00;2.00;;;;;16.22;55.75;103590.09;4972265;28;9689;-71
2022/01/23 06:10:20;;;;;;;;;2.33;2.33;;;;;16.23;55.50;103592.78;4973639;28;8794;-71
2022/01/23 06:12:45;;;;;;;;;2.00;2.00;;;;;16.18;55.69;103582.91;4975786;28;9453;-71
2022/01/23 06:15:10;;;;;;;;;1.50;1.50;;;;;16.19;55.74;103587.34;4975317;28;9439;-72
2022/01/23 06:17:36;;;;;;;;;1.00;1.00;;;;;16.22;55.60;103584.84;4974781;28;8957;-71
2022/01/23 06:20:01;;;;;;;;;1.75;1.75;;;;;16.17;55.98;103592.53;4975634;28;8770;-70
2022/01/23 06:22:27;;;;;;;;;2.25;2.25;;;;;16.19;55.91;103585.63;4975242;28;8774;-69
2022/01/23 06:24:55;;;;;;;;;4.00;2.00;;;;;16.18;55.75;103590.81;4974615;28;8786;-70
2022/01/23 06:27:20;;;;;;;;;1.00;1.00;;;;;16.16;55.70;103587.22;4974977;28;8778;-70
2022/01/23 06:29:46;;;;;;;;;2.00;2.00;;;;;16.20;55.77;103597.03;4975012;28;9480;-70
2022/01/23 06:32:12;;;;;;;;;3.25;2.00;;;;;16.17;55.80;103594.28;4974598;28;8789;-71
2022/01/23 06:34:38;;;;;;;;;3.67;3.00;;;;;16.19;55.72;103593.53;4975003;28;8817;-70
2022/01/23 06:37:03;;;;;;;;;1.50;1.50;;;;;16.20;55.74;103597.03;4975119;28;9251;-70
2022/01/23 06:39:29;;;;;;;;;2.00;2.00;;;;;16.19;55.76;103597.88;4974177;28;9541;-71
2022/01/23 06:41:55;;;;;;;;;1.00;1.00;;;;;16.19;55.84;103587.34;4974568;28;8782;-71
2022/01/23 06:44:22;;;;;;;;;3.00;3.00;;;;;16.18;55.83;103604.00;4974632;28;8782;-70
2022/01/23 06:46:47;;;;;;;;;3.00;2.00;;;;;16.20;55.77;103605.84;4975287;28;8763;-71
2022/01/23 06:49:13;;;;;;;;;1.33;1.33;;;;;16.19;55.47;103611.06;4974546;28;9408;-71
2022/01/23 06:51:39;;;;;;;;;3.00;3.00;;;;;16.21;55.84;103610.28;4974550;28;8877;-70
2022/01/23 06:54:04;;;;;;;;;2.00;2.00;;;;;16.20;55.68;103613.75;4974736;28;8763;-71
2022/01/23 06:56:30;;;;;;;;;2.25;2.25;;;;;16.19;55.57;103616.34;4974965;28;9363;-71
2022/01/23 06:58:56;;;;;;;;;3.00;2.00;;;;;16.17;55.79;103610.09;4974311;28;8802;-70
2022/01/23 07:01:21;;;;;;;;;2.00;2.00;;;;;16.19;55.71;103619.88;4974835;28;8786;-70
2022/01/23 07:03:47;;;;;;;;;3.00;3.00;;;;;16.22;55.68;103622.63;4974580;28;10252;-71
2022/01/23 07:06:13;;;;;;;;;3.00;2.67;;;;;16.20;55.70;103618.13;4973866;28;8782;-70
2022/01/23 07:08:38;;;;;;;;;3.00;2.00;;;;;16.14;55.61;103613.50;4974662;28;8947;-70
2022/01/23 07:11:03;;;;;;;;;1.75;1.00;;;;;16.15;56.05;103620.59;4974411;28;8844;-71
2022/01/23 07:13:29;;;;;;;;;1.00;1.00;;;;;16.16;55.48;103621.50;4973601;28;8777;-71
2022/01/23 07:15:54;;;;;;;;;2.75;2.75;;;;;16.16;55.69;103622.34;4974126;28;8840;-71
2022/01/23 07:18:19;;;;;;;;;1.00;1.00;;;;;16.17;55.77;103629.44;4974131;28;8793;-70
2022/01/23 07:20:46;;;;;;;;;2.75;2.75;;;;;16.20;55.85;103624.28;4973198;28;8783;-71
2022/01/23 07:23:11;;;;;;;;;2.75;2.50;;;;;16.19;55.89;103624.25;4973831;28;8790;-71
2022/01/23 07:25:39;;;;;;;;;4.00;3.00;;;;;16.16;55.80;103632.03;4974666;28;9457;-70
2022/01/23 07:28:06;;;;;;;;;2.00;2.00;;;;;16.18;55.97;103627.72;4973234;28;8888;-71
2022/01/23 07:32:57;;;;;;;;;3.50;3.50;;;;;16.16;55.78;103640.81;4974291;28;9305;-71
2022/01/23 07:35:22;;;;;;;;;2.00;2.00;;;;;16.15;55.74;103641.66;4972878;28;9399;-71
2022/01/23 07:37:48;;;;;;;;;2.33;2.00;;;;;16.17;55.59;103644.34;4974080;28;8774;-70
2022/01/23 07:40:13;;;;;;;;;2.00;2.00;;;;;16.15;55.59;103646.94;4973697;28;8770;-71
2022/01/23 07:42:41;;;;;;;;;2.00;2.00;;;;;16.18;55.65;103649.69;4973346;28;8786;-71
2022/01/23 07:45:07;;;;;;;;;2.00;2.00;;;;;16.20;55.88;103655.03;4973827;28;8782;-70
2022/01/23 07:47:33;;;;;;;;;2.00;2.00;;;;;16.11;55.70;103654.63;4972821;28;9403;-73
2022/01/23 07:50:03;;;;;;;;;1.00;1.00;;;;;16.15;56.13;103660.13;4973939;28;8849;-71
2022/01/23 07:52:30;;;;;;;;;2.00;2.00;;;;;16.19;56.02;103658.50;4971883;28;9515;-70
2022/01/23 07:54:57;;;;;;;;;2.75;2.75;;;;;16.15;55.85;103661.84;4972552;28;10161;-69
2022/01/23 07:57:22;;;;;;;;;3.00;3.00;;;;;16.13;55.80;103664.41;4973384;28;9440;-67
2022/01/23 07:59:48;;;;;;;;;3.00;3.00;;;;;16.14;55.67;103668.84;4972680;28;9464;-69
2022/01/23 08:02:13;;;;;;;;;2.00;2.00;;;;;16.14;55.90;103665.31;4972210;28;8834;-70
2022/01/23 08:04:39;;;;;;;;;2.25;2.25;;;;;16.11;55.75;103673.09;4974492;28;8824;-69
2022/01/23 08:07:20;;;;;;;;;2.00;1.33;;;;;16.11;55.84;103675.72;4972607;28;8853;-71
2022/01/23 08:09:45;;;;;;;;;3.00;2.00;;;;;16.10;55.93;103674.81;4972508;28;8891;-71
2022/01/23 08:12:10;;;;;;;;;3.00;3.00;;;;;16.11;55.66;103683.63;4972623;28;10002;-70
2022/01/23 08:14:36;;;;;;;;;3.00;2.33;;;;;16.14;56.08;103673.22;4987947;28;8840;-70
2022/01/23 08:17:01;;;;;;;;;2.25;2.25;;;;;16.12;55.63;103677.53;4991653;28;8903;-70
2022/01/23 08:19:26;;;;;;;;;3.00;3.00;;;;;16.12;55.90;103672.25;4991812;28;8804;-70
2022/01/23 08:21:52;;;;;;;;;2.00;2.00;;;;;16.13;55.62;103674.03;4992350;28;8858;-70
2022/01/23 08:24:17;;;;;;;;;3.25;3.25;;;;;16.14;55.75;103675.84;4989979;28;8939;-70
2022/01/23 08:26:42;;;;;;;;;3.00;3.00;;;;;16.10;55.79;103680.09;4991698;28;8792;-69
2022/01/23 08:29:09;;;;;;;;;4.00;3.00;;;;;16.11;55.60;103676.63;4988187;28;8932;-70
2022/01/23 08:31:34;;;;;;;;;2.50;2.25;;;;;16.10;55.60;103673.91;4971375;28;8890;-69
2022/01/23 08:34:00;;;;;;;;;3.00;3.00;;;;;16.12;55.54;103683.69;4982734;28;9543;-70
2022/01/23 08:36:26;;;;;;;;;2.00;2.00;;;;;16.15;55.35;103690.84;4991736;28;8873;-70
2022/01/23 08:38:51;;;;;;;;;2.50;2.50;;;;;16.18;55.44;103678.69;4991361;28;8804;-70
2022/01/23 08:44:01;;;;;;;;;4.00;4.00;;;;;16.25;55.27;103677.22;4990031;28;8784;-70
2022/01/23 08:46:26;;;;;;;;;3.25;3.00;;;;;16.27;55.13;103678.22;4991000;28;9478;-70
2022/01/23 08:48:51;;;;;;;;;3.00;3.00;;;;;16.28;55.04;103682.63;4991800;28;8800;-69
2022/01/23 08:51:17;;;;;;;;;4.00;4.00;;;;;16.29;55.27;103681.78;4990639;28;8804;-69
2022/01/23 08:53:42;;;;;;;;;4.00;4.00;;;;;16.28;54.99;103678.25;4981598;28;8912;-69
2022/01/23 08:56:07;;;;;;;;;5.50;4.00;;;;;16.33;54.96;103682.00;4971437;28;9679;-69
2022/01/23 08:58:33;;;;;;;;;3.00;3.00;;;;;16.35;54.75;103684.69;4971259;28;8795;-70
2022/01/23 09:00:58;;;;;;;;;3.00;3.00;;;;;16.39;54.88;103681.34;4981576;28;9618;-70
2022/01/23 09:03:23;;;;;;;;;4.50;3.00;;;;;16.37;54.71;103678.66;4990169;28;8792;-70
2022/01/23 09:05:49;;;;;;;;;5.75;4.00;;;;;16.41;54.74;103679.69;4990703;28;9701;-69
2022/01/23 09:08:14;;;;;;;;;4.00;4.00;;;;;16.41;54.47;103683.25;4990892;28;8819;-70
2022/01/23 09:10:42;;;;;;;;;4.00;4.00;;;;;16.42;54.81;103682.38;4992123;28;8804;-70
2022/01/23 09:13:28;;;;;;;;;3.50;3.00;;;;;16.42;54.97;103686.78;4990001;28;8831;-70
2022/01/23 09:15:53;;;;;;;;;5.00;4.00;;;;;16.43;54.95;103692.09;4970000;28;9601;-70
2022/01/23 09:18:22;;;;;;;;;2.75;2.75;;;;;16.42;54.59;103692.06;4983399;28;9477;-70
2022/01/23 09:20:47;;;;;;;;;5.00;5.00;;;;;16.42;54.68;103692.94;4987594;28;8814;-68
2022/01/23 09:23:12;;;;;;;;;3.00;3.00;;;;;16.42;54.68;103697.31;4975510;28;9599;-69
2022/01/23 09:25:37;;;;;;;;;3.50;3.50;;;;;16.42;54.78;103694.69;4991981;28;8811;-70
2022/01/23 09:28:07;;;;;;;;;4.00;4.00;;;;;16.39;54.95;103692.81;4990310;28;8804;-70
2022/01/23 09:30:36;;;;;;;;;5.00;5.00;;;;;16.42;54.59;103692.94;4981980;28;8777;-70
2022/01/23 09:33:02;;;;;;;;;3.25;3.25;;;;;16.39;54.88;103689.25;4988335;28;9483;-69
2022/01/23 09:35:27;;;;;;;;;7.25;4.75;;;;;16.39;55.18;103697.16;4971710;28;9437;-71
2022/01/23 09:37:52;;;;;;;;;4.25;4.25;;;;;16.46;57.78;103688.69;4972231;28;9727;-71
2022/01/23 09:40:18;;;;;;;;;4.25;4.00;;;;;16.70;61.27;103695.03;4970897;28;8786;-70
2022/01/23 09:42:50;;;;;;;;;8.75;6.00;;;;;16.73;63.06;103696.91;4972547;28;8801;-70
2022/01/23 09:45:17;;;;;;;;;6.00;6.00;;;;;16.79;63.10;103705.09;4975935;28;8818;-68
2022/01/23 09:47:43;;;;;;;;;6.50;5.50;;;;;16.86;63.33;103700.13;4975419;28;9553;-69
2022/01/23 09:50:11;;;;;;;;;7.00;5.75;;;;;16.90;65.31;103703.78;4975566;28;9547;-70
2022/01/23 09:52:38;;;;;;;;;5.50;5.25;;;;;17.02;67.11;103712.19;4975871;28;9552;-70
2022/01/23 09:55:09;;;;;;;;;8.00;6.00;;;;;17.13;69.01;103715.28;4974931;28;9505;-71
2022/01/23 09:57:37;;;;;;;;;10.00;5.75;;;;;17.11;67.56;103702.03;4976033;28;9460;-70
2022/01/23 10:00:07;;;;;;;;;5.00;5.00;;;;;17.08;67.62;103706.28;4975957;28;9522;-71
2022/01/23 10:02:32;;;;;;;;;8.00;8.00;;;;;17.10;68.43;103702.84;4974952;28;9624;-70
2022/01/23 10:04:57;;;;;;;;;9.00;6.25;;;;;17.07;68.16;103708.00;4975886;28;9584;-70
2022/01/23 10:07:23;;;;;;;;;12.50;9.75;;;;;17.09;69.84;103709.00;4975463;28;8778;-71
2022/01/23 10:09:54;;;;;;;;;12.00;8.25;;;;;17.33;69.92;103717.88;4975113;28;8938;-69
2022/01/23 10:12:20;;;;;;;;;12.00;9.25;;;;;17.19;67.65;103711.16;4975552;28;8794;-71
2022/01/23 10:14:49;;;;;;;;;12.50;12.50;;;;;16.96;70.38;103721.59;4975562;28;9899;-71
2022/01/23 10:17:15;;;;;;;;;10.75;10.25;;;;;16.82;69.82;103721.94;4974540;28;9751;-71
2022/01/23 10:19:40;;;;;;;;;12.25;11.75;;;;;16.77;70.51;103717.28;4975494;28;9793;-71
2022/01/23 10:22:06;;;;;;;;;12.75;11.75;;;;;16.76;69.44;103713.75;4975151;28;8783;-71
2022/01/23 10:24:32;;;;;;;;;10.00;9.00;;;;;16.76;69.77;103708.47;4974331;28;8794;-70
2022/01/23 10:26:59;;;;;;;;;16.75;15.00;;;;;16.74;69.46;103715.44;4974306;28;8889;-71
2022/01/23 10:29:33;;;;;;;;;13.25;11.25;;;;;16.67;68.28;103720.41;4973903;28;10454;-71
2022/01/23 10:32:20;;;;;;;;;13.75;13.25;;;;;16.67;68.26;103710.75;4973563;28;9733;-70
2022/01/23 10:35:11;;;;;;;;;10.00;10.00;;;;;16.63;67.76;103711.44;4974456;28;9787;-70
2022/01/23 10:37:40;;;;;;;;;11.00;11.00;;;;;16.66;67.57;103713.31;4970641;28;9831;-70
2022/01/23 10:40:11;;;;;;;;;17.00;15.00;;;;;16.64;67.97;103708.00;4989926;28;9834;-71
2022/01/23 10:48:01;;;;;;;;;14.00;13.00;;;;;16.59;65.49;103712.16;4968333;28;9876;-71
2022/01/23 10:50:27;;;;;;;;;11.00;11.00;;;;;16.62;66.17;103703.47;4973173;28;9751;-70
2022/01/23 10:52:58;;;;;;;;;12.00;12.00;;;;;16.60;65.67;103699.88;4973450;28;9810;-70
2022/01/23 10:55:44;;;;;;;;;8.75;7.75;;;;;16.66;65.22;103700.13;4974334;28;10555;-69
2022/01/23 10:58:21;;;;;;;;;14.50;13.50;;;;;16.75;64.45;103689.97;4979331;28;9842;-72
2022/01/23 11:00:46;;;;;;;;;12.50;12.50;;;;;16.81;63.73;103691.13;4991741;28;9756;-70
2022/01/23 11:03:22;;;;;;;;;12.25;12.25;;;;;16.85;63.62;103693.03;4973798;28;9737;-70
2022/01/23 11:05:50;;;;;;;;;13.00;11.00;;;;;16.92;63.11;103691.56;4973133;28;8794;-70
2022/01/23 11:08:27;;;;;;;;;13.00;12.00;;;;;16.94;62.82;103689.91;4973221;28;9591;-70
2022/01/23 11:10:54;;;;;;;;;10.50;9.50;;;;;17.03;62.84;103700.81;4972823;28;9718;-73
2022/01/23 11:19:27;;;;;;;;;7.00;7.00;;;;;17.23;61.55;103686.69;4971726;28;9724;-72
2022/01/23 11:21:53;;;;;;;;;10.25;10.25;;;;;17.16;61.55;103676.72;4972422;28;9620;-72
2022/01/23 11:24:23;;;;;;;;;8.50;8.50;;;;;17.23;61.02;103677.84;4972116;28;9651;-72
2022/01/23 11:27:00;;;;;;;;;8.50;8.00;;;;;17.15;61.08;103677.53;4973298;28;9648;-71
2022/01/23 11:29:25;;;;;;;;;8.25;6.75;;;;;17.10;61.62;103676.44;4973465;28;9570;-71
2022/01/23 11:31:50;;;;;;;;;9.25;7.75;;;;;17.06;61.63;103674.53;4972307;28;10434;-71
2022/01/23 11:34:21;;;;;;;;;8.50;7.00;;;;;17.02;61.58;103672.59;4971828;28;8802;-70
2022/01/23 11:36:46;;;;;;;;;6.25;5.25;;;;;16.98;61.48;103675.06;4973241;28;8850;-70
2022/01/23 11:39:22;;;;;;;;;7.00;6.50;;;;;16.91;61.33;103666.91;4972590;28;9729;-70
2022/01/23 11:55:46;;;;;;;;;5.25;5.25;;;;;16.88;61.44;103668.50;4972815;28;9501;-70
2022/01/23 11:58:35;;;;;;;;;7.00;6.00;;;;;16.82;61.03;103650.72;4973629;28;9635;-71
2022/01/23 12:01:18;;;;;;;;;9.00;6.75;;;;;16.88;61.12;103660.59;4973138;28;9547;-70
2022/01/23 12:04:20;;;;;;;;;7.00;6.00;;;;;16.86;60.97;103657.00;4973660;28;9550;-70
2022/01/23 12:07:12;;;;;;;;;6.00;6.00;;;;;16.85;60.65;103649.91;4972011;28;9651;-69
2022/01/23 12:09:39;;;;;;;;;6.00;6.00;;;;;16.89;61.13;103658.03;4972639;28;9571;-71
2022/01/23 12:12:09;;;;;;;;;5.00;5.00;;;;;16.89;60.77;103652.75;4973307;28;9543;-71
2022/01/23 12:17:10;;;;;;;;;6.25;6.25;;;;;16.90;61.14;103643.09;4972589;28;9555;-71
2022/01/23 12:19:49;;;;;;;;;8.00;6.25;;;;;16.88;60.45;103647.41;4973575;28;9715;-72
2022/01/23 12:22:22;;;;;;;;;6.00;6.00;;;;;16.86;60.61;103644.72;4971726;28;9542;-72
2022/01/23 12:24:49;;;;;;;;;6.00;5.00;;;;;16.80;60.54;103640.91;4972041;28;9645;-71
2022/01/23 12:27:23;;;;;;;;;6.75;5.50;;;;;16.84;60.51;103635.81;4972796;28;9645;-71
2022/01/23 12:29:49;;;;;;;;;9.00;6.75;;;;;16.95;60.55;103637.97;4972184;28;9467;-69
2022/01/23 12:32:18;;;;;;;;;5.75;4.25;;;;;17.06;60.13;103640.22;4972589;28;9647;-69
2022/01/23 12:34:52;;;;;;;;;7.00;6.25;;;;;16.97;60.21;103631.94;4972040;28;8999;-68
2022/01/23 12:37:17;;;;;;;;;6.00;4.25;;;;;16.90;60.11;103630.81;4970176;28;9485;-70
2022/01/23 12:39:43;;;;;;;;;6.50;5.75;;;;;16.89;60.22;103642.19;4984153;28;9571;-69
2022/01/23 12:42:09;;;;;;;;;7.75;7.75;;;;;16.87;60.24;103628.03;4991299;28;8776;-70
2022/01/23 12:44:37;;;;;;;;;5.00;5.00;;;;;16.84;60.42;103633.19;4979943;28;8925;-71
2022/01/23 12:47:05;;;;;;;;;5.33;5.33;;;;;16.86;60.00;103634.16;4972042;28;8929;-69
2022/01/23 12:49:34;;;;;;;;;8.75;5.75;;;;;16.83;60.10;103628.72;4971209;28;9432;-69
2022/01/23 12:52:05;;;;;;;;;7.00;5.25;;;;;16.85;59.88;103624.44;4970897;28;9553;-71
2022/01/23 12:54:31;;;;;;;;;3.50;3.50;;;;;16.83;59.64;103619.94;4971976;28;9348;-69
2022/01/23 12:57:05;;;;;;;;;5.33;5.00;;;;;16.88;59.99;103621.91;4971821;28;9428;-70
2022/01/23 13:02:15;;;;;;;;;6.00;6.00;;;;;17.17;61.62;103620.41;5127145;27;9499;-71
2022/01/23 13:04:44;;;;;;;;;7.75;7.75;;;;;17.08;62.60;103620.06;5106382;28;9525;-71
2022/01/23 13:07:19;;;;;;;;;10.00;6.50;;;;;16.97;63.21;103623.13;5108444;28;9537;-71
2022/01/23 13:10:03;;;;;;;;;5.00;5.00;;;;;16.84;63.57;103624.34;5108862;28;9638;-71
2022/01/23 13:12:49;;;;;;;;;7.25;7.25;;;;;16.77;64.20;103635.50;5107793;28;9547;-71
2022/01/23 13:16:14;;;;;;;;;7.25;7.25;;;;;16.72;63.97;103632.69;5096560;28;9584;-71
2022/01/23 13:31:42;;;;;;;;;5.75;5.75;;;;;16.67;63.48;103620.16;5086822;28;9510;-70
2022/01/23 13:34:32;;;;;;;;;5.00;4.33;;;;;16.69;63.78;103624.66;5095125;28;9439;-70
2022/01/23 13:37:00;;;;;;;;;5.25;5.25;;;;;16.69;63.97;103619.38;5085939;28;10070;-70
2022/01/23 13:39:33;;;;;;;;;6.75;5.50;;;;;16.71;64.55;103611.53;5099194;28;9586;-70
2022/01/23 13:42:49;;;;;;;;;4.75;4.75;;;;;16.69;64.46;103608.81;5107567;28;9493;-70
2022/01/23 13:59:20;;;;;;;;;4.75;4.75;;;;;16.68;64.51;103608.78;5105305;28;9642;-73
2022/01/23 14:01:51;;;;;;;;;5.00;4.00;;;;;16.66;64.49;103607.78;5085751;28;10259;-72
2022/01/23 14:04:18;;;;;;;;;4.00;4.00;;;;;16.66;65.02;103613.97;5094585;28;9652;-71
2022/01/23 14:06:45;;;;;;;;;6.75;6.75;;;;;16.66;65.03;103606.06;5103928;28;9360;-71
2022/01/23 14:09:12;;;;;;;;;5.25;5.25;;;;;16.66;64.87;103608.69;5097284;28;9480;-72
2022/01/23 14:11:38;;;;;;;;;8.00;6.75;;;;;16.62;65.40;103601.50;5103481;28;9516;-71
2022/01/23 14:14:23;;;;;;;;;7.00;7.00;;;;;16.65;64.87;103598.97;5093097;28;9712;-71
2022/01/23 14:16:51;;;;;;;;;5.25;5.00;;;;;16.68;65.52;103601.75;5075453;28;9555;-71
2022/01/23 14:19:23;;;;;;;;;4.50;4.50;;;;;16.61;65.62;103597.03;5071874;28;9602;-71
2022/01/23 14:21:56;;;;;;;;;7.00;5.50;;;;;16.61;65.36;103597.03;5088365;28;9502;-71
2022/01/23 14:24:29;;;;;;;;;5.25;5.00;;;;;16.59;65.07;103585.56;5092775;28;10115;-71
2022/01/23 14:27:01;;;;;;;;;4.50;4.50;;;;;16.57;65.48;103596.88;5093225;28;9567;-71
2022/01/23 14:29:28;;;;;;;;;6.25;5.00;;;;;16.57;65.17;103594.25;5084350;28;9819;-71
2022/01/23 14:32:05;;;;;;;;;7.00;7.00;;;;;16.56;64.65;103597.69;5071214;28;9505;-72
2022/01/23 14:34:30;;;;;;;;;5.00;5.00;;;;;16.52;65.34;103594.03;5072656;28;9553;-71
2022/01/23 14:36:59;;;;;;;;;5.00;5.00;;;;;16.56;66.10;103598.63;5072144;28;9610;-70
2022/01/23 14:39:24;;;;;;;;;6.50;5.50;;;;;16.54;65.69;103605.50;5072371;28;8798;-70
2022/01/23 14:41:50;;;;;;;;;5.50;5.50;;;;;16.54;65.28;103601.97;5072338;28;9611;-70
2022/01/23 14:44:21;;;;;;;;;5.00;5.00;;;;;16.54;65.71;103604.63;5071706;28;8790;-71
2022/01/23 14:46:49;;;;;;;;;6.00;5.25;;;;;16.52;65.28;103603.66;5079761;28;8812;-71
2022/01/23 14:49:22;;;;;;;;;5.00;5.00;;;;;16.51;65.69;103601.84;5091069;28;9528;-71
2022/01/23 14:51:48;;;;;;;;;5.50;4.00;;;;;16.60;65.17;103605.81;5092197;28;9710;-71
2022/01/23 14:54:16;;;;;;;;;3.75;3.75;;;;;16.87;66.29;103603.41;5083780;28;9449;-72
2022/01/23 14:56:42;;;;;;;;;7.75;6.00;;;;;16.68;64.94;103599.13;5091947;28;8780;-70
2022/01/23 14:59:09;;;;;;;;;4.00;4.00;;;;;16.63;68.24;103598.03;5078097;28;9525;-70
2022/01/23 15:01:35;;;;;;;;;5.75;5.00;;;;;16.57;67.17;103594.25;5079912;28;8855;-71
2022/01/23 15:04:05;;;;;;;;;6.75;6.75;;;;;16.58;68.48;103601.28;5076033;28;9490;-69
2022/01/23 15:06:31;;;;;;;;;6.75;5.00;;;;;16.55;67.75;103591.50;5092605;28;11497;-70
2022/01/23 15:09:08;;;;;;;;;5.75;5.75;;;;;16.54;67.85;103596.69;5091240;28;9647;-70
2022/01/23 15:11:34;;;;;;;;;4.50;4.50;;;;;16.53;67.17;103598.47;5091679;28;8792;-71
2022/01/23 15:14:00;;;;;;;;;8.00;7.00;;;;;16.53;67.90;103601.09;5091973;28;9429;-70
2022/01/23 15:16:25;;;;;;;;;5.00;5.00;;;;;16.55;68.47;103599.41;5092074;28;9425;-71